Time;durP1;ratioP1;P1;durP2;ratioP2;P2;SDS_P1;SDS_P2;PMS_P1;PMS_P2;Temp;Humidity;BMP_temperature;BMP_pressure;BME280_temperature;BME280_humidity;BME280_pressure;Samples;Min_cycle;Max_cycle;Signal;HPM_P1;HPM_P2
2023/05/08 00:01:04;;;;;;;8.30;5.30;;;;;;;5.22;68.11;101418.61;103830;1255;108384;-71
2023/05/08 00:03:34;;;;;;;8.80;6.10;;;;;;;5.22;68.03;101419.48;103924;1254;141592;-71
2023/05/08 00:06:03;;;;;;;9.50;6.00;;;;;;;5.21;68.10;101421.37;104010;1256;105964;-71
2023/05/08 00:08:30;;;;;;;9.50;5.80;;;;;;;5.20;68.03;101418.06;103431;1255;96522;-71
2023/05/08 00:11:00;;;;;;;8.70;5.80;;;;;;;5.19;68.19;101418.04;103458;1252;137565;-71
2023/05/08 00:13:30;;;;;;;9.40;6.60;;;;;;;5.17;68.04;101419.24;103719;1256;107745;-71
2023/05/08 00:16:10;;;;;;;7.80;5.80;;;;;;;5.16;68.23;101421.64;103442;1251;137974;-72
2023/05/08 00:18:48;;;;;;;8.40;5.80;;;;;;;5.14;68.32;101425.60;103576;1254;107210;-71
2023/05/08 00:21:35;;;;;;;8.90;5.30;;;;;;;5.13;68.26;101424.21;103486;1253;138020;-71
2023/05/08 00:24:02;;;;;;;8.70;5.90;;;;;;;5.11;68.17;101425.05;103585;1255;110701;-71
2023/05/08 00:26:29;;;;;;;10.90;5.60;;;;;;;5.10;68.39;101430.39;103522;1256;107245;-71
2023/05/08 00:29:04;;;;;;;7.80;5.40;;;;;;;5.08;68.46;101430.03;103365;1257;137947;-71
2023/05/08 00:31:53;;;;;;;8.30;5.40;;;;;;;5.06;68.38;101430.54;103532;1251;108286;-71
2023/05/08 00:34:20;;;;;;;6.50;4.90;;;;;;;5.04;68.43;101434.31;103838;1256;137776;-71
2023/05/08 00:36:49;;;;;;;9.00;5.80;;;;;;;5.02;68.44;101433.24;103578;1256;111015;-70
2023/05/08 00:39:37;;;;;;;8.30;5.60;;;;;;;5.02;68.50;101432.72;103571;1251;137863;-71
2023/05/08 00:42:04;;;;;;;8.00;5.30;;;;;;;5.00;68.51;101434.95;103573;1251;96438;-71
2023/05/08 00:44:31;;;;;;;9.40;5.60;;;;;;;5.00;68.42;101434.77;103441;1256;108462;-71
2023/05/08 00:47:17;;;;;;;;;;;;;;;4.99;68.72;101437.35;103474;1250;96793;-71
2023/05/08 00:49:45;;;;;;;8.00;5.80;;;;;;;4.96;68.70;101436.12;103868;1255;109140;-70
2023/05/08 00:52:16;;;;;;;9.20;6.10;;;;;;;4.96;68.90;101441.63;103636;1255;137958;-71
2023/05/08 00:54:44;;;;;;;10.30;5.90;;;;;;;4.95;69.01;101441.80;103569;1255;96813;-71
2023/05/08 00:57:12;;;;;;;9.20;5.70;;;;;;;4.94;68.85;101445.92;103619;1255;137944;-71
2023/05/08 00:59:41;;;;;;;6.20;5.00;;;;;;;4.94;68.92;101450.75;103543;1251;96438;-70
2023/05/08 01:02:09;;;;;;;9.20;5.80;;;;;;;4.92;69.00;101452.63;103440;1251;109612;-70
2023/05/08 01:04:38;;;;;;;7.90;5.30;;;;;;;4.91;68.75;101455.20;103399;1252;138044;-70
2023/05/08 01:07:05;;;;;;;9.00;5.40;;;;;;;4.89;68.79;101461.22;103512;1254;96312;-71
2023/05/08 01:09:38;;;;;;;7.10;5.30;;;;;;;4.88;68.68;101467.07;103288;1255;137781;-70
2023/05/08 01:12:17;;;;;;;6.60;5.30;;;;;;;4.86;68.80;101468.77;103495;1250;96421;-71
2023/05/08 01:15:08;;;;;;;8.10;5.50;;;;;;;4.86;68.70;101471.19;103537;1255;110109;-70
2023/05/08 01:17:45;;;;;;;9.30;5.40;;;;;;;4.85;68.71;101472.90;103675;1256;106853;-71
2023/05/08 01:20:21;;;;;;;9.10;5.80;;;;;;;4.83;68.67;101472.86;103508;1251;97189;-71
2023/05/08 01:23:06;;;;;;;9.00;5.40;;;;;;;4.82;68.94;101474.91;103493;1251;137569;-71
2023/05/08 01:26:09;;;;;;;9.60;5.80;;;;;;;4.82;69.01;101474.92;103520;1251;96440;-72
2023/05/08 01:29:09;;;;;;;6.30;5.10;;;;;;;4.82;68.95;101471.48;103191;1263;137922;-71
2023/05/08 01:31:51;;;;;;;8.80;6.00;;;;;;;4.82;69.22;101472.33;102593;1268;107788;-71
2023/05/08 01:34:23;;;;;;;8.40;6.20;;;;;;;4.82;69.39;101476.98;102538;1268;138045;-71
2023/05/08 01:37:09;;;;;;;12.40;7.00;;;;;;;4.82;69.32;101476.30;102618;1268;108158;-71
2023/05/08 01:39:47;;;;;;;8.50;6.50;;;;;;;4.81;69.45;101477.31;102513;1270;138539;-71
2023/05/08 01:42:23;;;;;;;9.60;6.30;;;;;;;4.80;69.48;101475.94;101695;1271;1002989;-71
2023/05/08 01:44:57;;;;;;;10.00;7.10;;;;;;;4.80;69.82;101476.27;102442;1272;109318;-71
2023/05/08 01:47:29;;;;;;;10.60;7.40;;;;;;;4.79;69.92;101481.44;102362;1276;98134;-70
2023/05/08 01:50:12;;;;;;;9.60;6.90;;;;;;;4.78;69.95;101481.26;102535;1276;106719;-71
2023/05/08 01:52:46;;;;;;;10.10;7.50;;;;;;;4.76;70.10;101486.76;102257;1273;137907;-71
2023/05/08 01:55:21;;;;;;;9.40;7.00;;;;;;;4.76;70.22;101485.02;102405;1270;110068;-71
2023/05/08 01:57:56;;;;;;;10.40;7.50;;;;;;;4.74;70.27;101486.03;102219;1274;138505;-71
2023/05/08 02:00:27;;;;;;;11.20;8.00;;;;;;;4.71;70.38;101488.77;102321;1273;97928;-71
2023/05/08 02:02:56;;;;;;;13.30;8.20;;;;;;;4.70;70.39;101489.79;102333;1271;107626;-70
2023/05/08 02:05:25;;;;;;;10.90;8.00;;;;;;;4.68;70.65;101490.29;102607;1270;137786;-71
2023/05/08 02:07:56;;;;;;;14.90;8.90;;;;;;;4.67;70.84;101489.59;102606;1269;110533;-71
2023/05/08 02:10:25;;;;;;;12.30;8.10;;;;;;;4.65;70.95;101491.61;102831;1260;138150;-70
2023/05/08 02:12:55;;;;;;;12.50;9.40;;;;;;;4.65;70.95;101491.77;103553;1255;96330;-70
2023/05/08 02:15:24;;;;;;;13.90;8.70;;;;;;;4.63;71.02;101492.09;103670;1255;138574;-71
2023/05/08 02:17:53;;;;;;;10.80;8.60;;;;;;;4.62;71.41;101494.14;103488;1251;97132;-71
2023/05/08 02:20:22;;;;;;;9.80;8.40;;;;;;;4.60;71.30;101492.06;103556;1251;111135;-71
2023/05/08 02:22:51;;;;;;;13.10;9.30;;;;;;;4.59;71.39;101494.29;103689;1254;137794;-71
2023/05/08 02:25:20;;;;;;;13.10;8.60;;;;;;;4.58;71.47;101495.14;103528;1254;96936;-71
2023/05/08 02:27:49;;;;;;;13.70;9.60;;;;;;;4.56;71.56;101491.68;103406;1251;137833;-71
2023/05/08 02:30:18;;;;;;;12.80;8.60;;;;;;;4.54;71.78;101491.32;103548;1253;96443;-71
2023/05/08 02:32:47;;;;;;;12.40;9.00;;;;;;;4.52;71.77;101488.89;103516;1251;109560;-71
2023/05/08 02:35:17;;;;;;;12.10;9.10;;;;;;;4.50;72.05;101489.55;104279;1251;137786;-71
2023/05/08 02:37:46;;;;;;;14.00;9.30;;;;;;;4.49;72.03;101490.57;103547;1256;96355;-71
2023/05/08 02:40:17;;;;;;;14.20;8.90;;;;;;;4.48;72.26;101491.73;103356;1252;138645;-71
2023/05/08 02:42:45;;;;;;;13.80;9.70;;;;;;;4.46;72.28;101493.61;103511;1255;96671;-71
2023/05/08 02:45:14;;;;;;;15.30;10.10;;;;;;;4.44;72.09;101488.77;104041;1250;137990;-70
2023/05/08 02:47:47;;;;;;;13.70;9.40;;;;;;;4.42;72.26;101486.33;103641;1255;107117;-71
2023/05/08 02:50:22;;;;;;;13.20;10.00;;;;;;;4.40;72.33;101485.62;103608;1251;97002;-71
2023/05/08 02:52:53;;;;;;;15.10;10.90;;;;;;;4.39;72.51;101486.98;103398;1256;138344;-70
2023/05/08 02:55:34;;;;;;;15.50;10.80;;;;;;;4.36;72.69;101484.70;103480;1256;96343;-71
2023/05/08 02:58:09;;;;;;;15.70;9.70;;;;;;;4.33;72.64;101486.05;103782;1251;138017;-71
2023/05/08 03:00:47;;;;;;;15.00;9.80;;;;;;;4.29;72.74;101486.48;103521;1255;107894;-71
2023/05/08 03:03:19;;;;;;;16.10;9.90;;;;;;;4.26;72.75;101488.52;103485;1251;138428;-71
2023/05/08 03:05:51;;;;;;;13.80;10.10;;;;;;;4.24;73.00;101491.60;103556;1257;109524;-72
2023/05/08 03:08:24;;;;;;;15.20;10.50;;;;;;;4.24;72.95;101494.70;103656;1251;96969;-71
2023/05/08 03:10:55;;;;;;;14.60;10.00;;;;;;;4.23;73.07;101492.28;103721;1251;138307;-71
2023/05/08 03:13:44;;;;;;;14.80;10.60;;;;;;;4.24;73.31;101495.39;103555;1256;107136;-71
2023/05/08 03:16:24;;;;;;;14.10;10.70;;;;;;;4.25;73.40;101500.55;103438;1251;138210;-71
2023/05/08 03:18:59;;;;;;;16.10;11.10;;;;;;;4.26;73.27;101506.60;103446;1257;108074;-72
2023/05/08 03:21:49;;;;;;;16.30;11.10;;;;;;;4.26;73.41;101511.27;103404;1256;138450;-71
2023/05/08 03:24:22;;;;;;;18.00;11.80;;;;;;;4.27;73.55;101510.73;103559;1251;111069;-71
2023/05/08 03:26:50;;;;;;;15.40;11.20;;;;;;;4.27;73.63;101512.46;103521;1251;108212;-71
2023/05/08 03:29:23;;;;;;;16.10;11.70;;;;;;;4.29;73.49;101517.14;103486;1251;138036;-71
2023/05/08 03:31:53;;;;;;;15.30;11.20;;;;;;;4.30;73.70;101516.13;103765;1254;108100;-71
2023/05/08 03:34:23;;;;;;;14.70;10.60;;;;;;;4.32;73.70;101519.10;103721;1251;138165;-72
2023/05/08 03:36:53;;;;;;;16.20;10.80;;;;;;;4.33;73.74;101521.00;103560;1251;110774;-72
2023/05/08 03:39:21;;;;;;;17.30;11.40;;;;;;;4.35;73.70;101519.99;103599;1251;138269;-71
2023/05/08 03:41:49;;;;;;;14.80;10.60;;;;;;;4.38;73.72;101520.73;103496;1251;97010;-71
2023/05/08 03:44:20;;;;;;;16.50;11.00;;;;;;;4.41;73.79;101517.15;103550;1251;107367;-71
2023/05/08 03:46:49;;;;;;;17.50;10.60;;;;;;;4.44;73.59;101517.17;103538;1251;138480;-71
2023/05/08 03:49:17;;;;;;;16.50;11.00;;;;;;;4.47;73.67;101518.94;103810;1252;110137;-71
2023/05/08 03:51:47;;;;;;;20.40;12.00;;;;;;;4.49;73.72;101517.95;103380;1251;138167;-71
2023/05/08 03:54:15;;;;;;;16.80;11.50;;;;;;;4.54;73.82;101516.80;103699;1251;100361;-71
2023/05/08 03:56:44;;;;;;;17.10;11.10;;;;;;;4.58;73.82;101515.98;103461;1257;108046;-70
2023/05/08 03:59:17;;;;;;;17.20;10.70;;;;;;;4.62;73.76;101519.81;103447;1251;138341;-71
2023/05/08 04:01:54;;;;;;;18.00;11.20;;;;;;;4.66;73.79;101521.77;103630;1257;109699;-70
2023/05/08 04:04:43;;;;;;;15.30;10.30;;;;;;;4.71;73.91;101524.95;103584;1254;138267;-70
2023/05/08 04:07:24;;;;;;;18.50;11.40;;;;;;;4.76;73.62;101527.23;103670;1250;96411;-71
2023/05/08 04:09:59;;;;;;;22.20;13.30;;;;;;;4.79;73.93;101530.89;103364;1254;138156;-70
2023/05/08 04:12:33;;;;;;;15.50;11.70;;;;;;;4.85;73.69;101529.75;103710;1256;96342;-70
2023/05/08 04:15:08;;;;;;;19.10;10.90;;;;;;;4.93;73.66;101532.44;103558;1251;109669;-71
2023/05/08 04:17:42;;;;;;;15.80;11.20;;;;;;;5.00;73.58;101536.63;103720;1251;106956;-71
2023/05/08 04:20:31;;;;;;;20.00;11.30;;;;;;;5.09;73.63;101538.64;103611;1251;96447;-72
2023/05/08 04:23:21;;;;;;;15.70;10.70;;;;;;;5.19;73.68;101540.48;103488;1256;138454;-72
2023/05/08 04:25:51;;;;;;;16.90;11.90;;;;;;;5.27;73.71;101550.23;103783;1257;96432;-72
2023/05/08 04:28:19;;;;;;;19.30;11.80;;;;;;;5.36;73.51;101550.30;104514;1251;138942;-72
2023/05/08 04:30:48;;;;;;;16.50;11.90;;;;;;;5.47;73.47;101554.73;103501;1251;107329;-70
2023/05/08 04:33:18;;;;;;;18.80;11.40;;;;;;;5.61;73.43;101558.31;103520;1252;138342;-70
2023/05/08 04:35:46;;;;;;;15.30;11.10;;;;;;;5.74;73.32;101559.11;103763;1250;107936;-70
2023/05/08 04:38:13;;;;;;;19.10;11.50;;;;;;;5.87;73.18;101561.65;104048;1251;96438;-71
2023/05/08 04:40:40;;;;;;;18.20;10.80;;;;;;;6.01;72.81;101559.37;103512;1251;138095;-71
2023/05/08 04:43:08;;;;;;;15.80;10.40;;;;;;;6.16;72.41;101558.61;103694;1256;107648;-71
2023/05/08 04:45:36;;;;;;;15.60;9.60;;;;;;;6.30;72.22;101558.36;103836;1250;138265;-70
2023/05/08 04:48:04;;;;;;;11.80;8.90;;;;;;;6.46;71.81;101559.30;104691;1251;107762;-71
2023/05/08 04:50:31;;;;;;;14.30;8.90;;;;;;;6.61;71.54;101561.48;104069;1251;95018;-71
2023/05/08 04:52:58;;;;;;;11.00;7.80;;;;;;;6.77;71.24;101566.20;103435;1251;137969;-70
2023/05/08 04:55:25;;;;;;;11.80;8.20;;;;;;;6.91;70.66;101566.10;103521;1255;107929;-71
2023/05/08 04:57:52;;;;;;;9.40;7.10;;;;;;;7.06;70.56;101570.99;103655;1250;139073;-71
2023/05/08 05:00:20;;;;;;;7.90;6.00;;;;;;;7.24;69.99;101575.20;103492;1250;107731;-71
2023/05/08 05:02:47;;;;;;;11.20;6.10;;;;;;;7.47;69.68;101573.35;103821;1251;96511;-71
2023/05/08 05:05:15;;;;;;;7.90;5.90;;;;;;;8.04;70.00;101573.72;103664;1251;138514;-72
2023/05/08 05:07:42;;;;;;;6.60;4.80;;;;;;;9.74;70.23;101568.66;103394;1256;107240;-73
2023/05/08 05:10:11;;;;;;;7.00;4.20;;;;;;;12.22;67.23;101563.28;103743;1251;137326;-73
2023/05/08 05:12:39;;;;;;;6.20;4.00;;;;;;;14.66;63.42;101559.27;103473;1256;107011;-73
2023/05/08 05:15:08;;;;;;;6.60;4.00;;;;;;;16.92;59.50;101557.17;103491;1251;96440;-72
2023/05/08 05:17:36;;;;;;;4.30;3.10;;;;;;;18.93;55.65;101552.66;103625;1251;110762;-74
2023/05/08 05:20:07;;;;;;;4.80;3.10;;;;;;;20.76;52.10;101547.05;103929;1251;107680;-72
2023/05/08 05:22:35;;;;;;;5.00;3.10;;;;;;;22.49;49.04;101545.95;103697;1251;138055;-72
2023/05/08 05:25:02;;;;;;;6.20;3.20;;;;;;;24.17;45.76;101545.17;103505;1250;108259;-73
2023/05/08 05:27:30;;;;;;;5.00;3.20;;;;;;;25.29;43.43;101546.86;103597;1250;137801;-74
2023/05/08 05:29:57;;;;;;;6.00;2.70;;;;;;;26.53;40.74;101540.68;103761;1251;111219;-74
2023/05/08 05:32:24;;;;;;;4.00;2.90;;;;;;;27.62;38.61;101540.58;103905;1251;107288;-74
2023/05/08 05:34:53;;;;;;;4.20;2.90;;;;;;;28.42;36.60;101536.08;103395;1251;138116;-74
2023/05/08 05:37:20;;;;;;;4.10;2.40;;;;;;;29.35;34.98;101541.04;103690;1256;109461;-74
2023/05/08 05:39:47;;;;;;;3.80;2.40;;;;;;;30.24;33.84;101537.10;103364;1256;138412;-76
2023/05/08 05:42:14;;;;;;;2.70;2.00;;;;;;;30.99;32.24;101539.02;103343;1250;110509;-71
2023/05/08 05:44:42;;;;;;;4.20;2.40;;;;;;;31.72;30.70;101540.17;103590;1251;107246;-73
2023/05/08 05:47:09;;;;;;;2.20;2.00;;;;;;;32.34;29.49;101539.73;103470;1251;137535;-74
2023/05/08 05:49:41;;;;;;;4.60;2.00;;;;;;;32.88;28.57;101537.50;103435;1251;100933;-74
2023/05/08 05:52:09;;;;;;;3.70;2.30;;;;;;;33.48;27.22;101537.30;103642;1251;137671;-74
2023/05/08 05:54:36;;;;;;;3.00;1.90;;;;;;;33.95;26.30;101539.94;103546;1256;101176;-74
2023/05/08 05:57:04;;;;;;;2.80;2.30;;;;;;;34.25;25.17;101540.92;103466;1251;100278;-70
2023/05/08 05:59:31;;;;;;;2.40;1.90;;;;;;;34.60;24.39;101541.48;103450;1251;137424;-71
2023/05/08 06:01:58;;;;;;;3.00;2.00;;;;;;;34.85;23.70;101540.55;103281;1251;278821;-71
2023/05/08 06:04:26;;;;;;;4.50;1.80;;;;;;;35.08;23.06;101540.79;103411;1250;137485;-72
2023/05/08 06:06:53;;;;;;;2.80;2.00;;;;;;;35.18;22.38;101541.23;103609;1251;102416;-70
2023/05/08 06:09:20;;;;;;;4.00;1.90;;;;;;;35.48;22.36;101538.86;103238;1251;138157;-72
2023/05/08 06:11:50;;;;;;;4.50;2.10;;;;;;;35.75;21.87;101539.27;103560;1251;96659;-68
2023/05/08 06:14:17;;;;;;;3.50;1.90;;;;;;;35.74;21.38;101539.89;103678;1250;100329;-68
2023/05/08 06:16:44;;;;;;;3.90;2.10;;;;;;;35.87;21.07;101544.70;103457;1250;137696;-68
2023/05/08 06:19:11;;;;;;;2.30;2.00;;;;;;;36.07;20.47;101545.25;103543;1254;101303;-69
2023/05/08 06:21:39;;;;;;;8.10;2.30;;;;;;;36.21;20.10;101543.34;103339;1251;137702;-69
2023/05/08 06:24:06;;;;;;;2.20;2.00;;;;;;;36.53;19.97;101541.39;103534;1250;96296;-67
2023/05/08 06:26:33;;;;;;;3.10;2.10;;;;;;;36.74;19.51;101543.23;103459;1251;99984;-69
2023/05/08 06:29:00;;;;;;;3.90;2.10;;;;;;;36.95;19.04;101544.05;103326;1250;137273;-69
2023/05/08 06:31:27;;;;;;;2.40;1.90;;;;;;;37.20;18.84;101542.86;103380;1251;101936;-70
2023/05/08 06:33:54;;;;;;;3.50;2.10;;;;;;;37.30;18.36;101543.30;103235;1250;137377;-69
2023/05/08 06:36:21;;;;;;;2.70;2.10;;;;;;;37.50;18.53;101543.77;103497;1251;96297;-69
2023/05/08 06:38:48;;;;;;;4.50;2.50;;;;;;;37.84;18.05;101545.10;103393;1250;100386;-69
2023/05/08 06:41:15;;;;;;;3.00;1.90;;;;;;;38.09;17.63;101545.55;103336;1254;140431;-68
2023/05/08 06:43:42;;;;;;;4.70;1.80;;;;;;;38.28;16.79;101545.59;103304;1251;101218;-68
2023/05/08 06:46:09;;;;;;;2.80;1.60;;;;;;;38.03;16.25;101546.52;103177;1254;137214;-69
2023/05/08 06:48:37;;;;;;;3.10;2.00;;;;;;;37.65;15.72;101543.32;103254;1252;96446;-69
2023/05/08 06:51:04;;;;;;;9.30;3.00;;;;;;;37.25;15.76;101545.66;103423;1250;100262;-66
2023/05/08 06:53:31;;;;;;;25.10;4.40;;;;;;;37.04;16.59;101544.21;103425;1251;137260;-65
2023/05/08 06:55:58;;;;;;;10.30;2.90;;;;;;;36.93;16.67;101535.91;103551;1254;102925;-65
2023/05/08 06:58:25;;;;;;;6.50;2.70;;;;;;;37.02;16.47;101538.92;103317;1251;137618;-69
2023/05/08 07:00:52;;;;;;;12.00;3.00;;;;;;;37.12;16.46;101541.30;103437;1250;96514;-63
2023/05/08 07:03:19;;;;;;;12.80;3.30;;;;;;;37.24;16.38;101540.42;103378;1251;137929;-70
2023/05/08 07:05:45;;;;;;;2.50;1.90;;;;;;;37.36;15.78;101542.20;103466;1254;96415;-69
2023/05/08 07:08:12;;;;;;;5.90;1.80;;;;;;;37.43;15.67;101542.86;103447;1250;103076;-68
2023/05/08 07:10:39;;;;;;;2.90;1.80;;;;;;;37.44;15.43;101543.30;103366;1251;137483;-69
2023/05/08 07:13:07;;;;;;;3.70;2.10;;;;;;;37.38;15.32;101543.73;103600;1250;96517;-69
2023/05/08 07:15:34;;;;;;;3.20;2.20;;;;;;;37.35;15.36;101544.05;103537;1251;138053;-68
2023/05/08 07:18:02;;;;;;;4.40;1.70;;;;;;;37.38;14.92;101542.95;103948;1250;95298;-67
2023/05/08 07:20:29;;;;;;;4.50;2.20;;;;;;;37.25;14.64;101545.54;103567;1254;101627;-67
2023/05/08 07:22:56;;;;;;;7.30;3.80;;;;;;;37.03;14.90;101547.21;104049;1250;138130;-70
2023/05/08 07:25:24;;;;;;;3.70;1.90;;;;;;;37.01;15.17;101546.13;103544;1251;96466;-71
2023/05/08 07:27:51;;;;;;;4.50;1.30;;;;;;;36.95;14.79;101549.50;103286;1254;137678;-69
2023/05/08 07:30:19;;;;;;;2.60;1.60;;;;;;;36.86;14.04;101552.61;103490;1256;96505;-68
2023/05/08 07:32:46;;;;;;;2.00;1.60;;;;;;;36.49;13.99;101552.38;103580;1252;102447;-68
2023/05/08 07:35:14;;;;;;;6.70;1.80;;;;;;;36.22;14.52;101552.96;103411;1252;137402;-70
2023/05/08 07:37:41;;;;;;;5.40;1.50;;;;;;;36.21;14.99;101550.89;103619;1251;96425;-70
2023/05/08 07:40:10;;;;;;;9.50;2.90;;;;;;;36.17;14.97;101551.73;103442;1256;137538;-68
2023/05/08 07:42:42;;;;;;;8.20;2.20;;;;;;;36.07;14.60;101554.84;103611;1251;96481;-63
2023/05/08 07:45:12;;;;;;;6.30;2.40;;;;;;;35.95;14.25;101553.25;104202;1251;101263;-62
2023/05/08 07:47:48;;;;;;;11.50;3.10;;;;;;;35.66;14.52;101553.34;104002;1251;98839;-63
2023/05/08 07:50:15;;;;;;;7.60;2.80;;;;;;;35.41;15.00;101550.67;103740;1251;96481;-62
2023/05/08 07:52:42;;;;;;;15.50;3.10;;;;;;;35.31;15.31;101551.53;103377;1251;137352;-62
2023/05/08 07:55:10;;;;;;;7.60;2.40;;;;;;;35.34;15.69;101548.64;103583;1251;96416;-61
2023/05/08 07:57:42;;;;;;;7.00;2.70;;;;;;;35.46;15.60;101547.55;103889;1250;137415;-62
2023/05/08 08:00:12;;;;;;;11.00;2.00;;;;;;;35.53;15.68;101552.69;103795;1251;99301;-63
2023/05/08 08:02:39;;;;;;;19.80;3.40;;;;;;;35.39;14.89;101551.50;104464;1253;94602;-62
2023/05/08 08:05:08;;;;;;;59.20;5.60;;;;;;;35.24;15.16;101548.50;103615;1251;138146;-62
2023/05/08 08:07:36;;;;;;;8.10;2.40;;;;;;;35.22;15.17;101546.36;103699;1256;96428;-62
2023/05/08 08:10:04;;;;;;;18.90;3.60;;;;;;;35.13;15.14;101547.98;103499;1250;137430;-62
2023/05/08 08:12:32;;;;;;;9.40;2.30;;;;;;;35.09;15.36;101552.55;103624;1250;100160;-62
2023/05/08 08:14:59;;;;;;;28.00;3.70;;;;;;;35.17;15.49;101548.81;103555;1250;96609;-60
2023/05/08 08:17:26;;;;;;;7.10;1.80;;;;;;;35.30;15.20;101546.67;103450;1250;137262;-64
2023/05/08 08:19:55;;;;;;;8.40;2.50;;;;;;;35.26;14.75;101546.27;103593;1251;96442;-62
2023/05/08 08:22:22;;;;;;;10.70;2.20;;;;;;;35.18;14.87;101541.98;103476;1254;137924;-63
2023/05/08 08:24:49;;;;;;;6.40;2.20;;;;;;;35.07;15.13;101541.04;104144;1250;100064;-63
2023/05/08 08:27:21;;;;;;;9.40;2.30;;;;;;;35.02;14.85;101540.73;103482;1250;137793;-63
2023/05/08 08:29:48;;;;;;;7.90;2.20;;;;;;;34.91;15.03;101537.86;103544;1251;99571;-63
2023/05/08 08:32:15;;;;;;;5.10;2.10;;;;;;;35.00;15.32;101537.55;103585;1252;96347;-63
2023/05/08 08:34:43;;;;;;;6.70;2.30;;;;;;;35.17;15.17;101532.89;103484;1251;137361;-63
2023/05/08 08:37:10;;;;;;;7.70;2.10;;;;;;;35.19;14.98;101533.34;103430;1256;100967;-63
2023/05/08 08:39:39;;;;;;;3.90;2.20;;;;;;;34.90;14.66;101531.45;103500;1251;137871;-63
2023/05/08 08:42:07;;;;;;;3.30;2.20;;;;;;;34.43;14.59;101531.45;103512;1251;99895;-63
2023/05/08 08:44:34;;;;;;;8.30;2.80;;;;;;;33.82;14.27;101533.80;103579;1251;96312;-62
2023/05/08 08:47:05;;;;;;;6.10;2.10;;;;;;;32.81;15.19;101528.30;103486;1252;137502;-62
2023/05/08 08:49:34;;;;;;;11.80;2.00;;;;;;;32.68;15.99;101527.00;103967;1251;107933;-63
2023/05/08 08:52:06;;;;;;;6.40;1.70;;;;;;;32.81;15.73;101528.17;103528;1250;137819;-62
2023/05/08 08:54:35;;;;;;;5.70;2.40;;;;;;;32.55;15.51;101523.66;103711;1250;100150;-62
2023/05/08 08:57:07;;;;;;;6.00;2.40;;;;;;;32.21;16.02;101530.11;103635;1253;96483;-62
2023/05/08 08:59:38;;;;;;;6.20;2.30;;;;;;;31.13;14.87;101531.30;103686;1250;110532;-62
2023/05/08 09:02:11;;;;;;;8.20;2.80;;;;;;;29.43;15.53;101532.97;104424;1250;106931;-64
2023/05/08 09:04:38;;;;;;;3.40;2.00;;;;;;;27.86;16.90;101532.63;103634;1251;137484;-62
2023/05/08 09:07:07;;;;;;;10.40;2.10;;;;;;;26.77;17.51;101534.52;103646;1254;107684;-62
2023/05/08 09:09:34;;;;;;;6.30;2.70;;;;;;;25.75;18.40;101538.81;103427;1250;137893;-62
2023/05/08 09:12:02;;;;;;;4.50;2.10;;;;;;;24.82;18.54;101541.59;103563;1250;110227;-61
2023/05/08 09:14:29;;;;;;;9.90;2.50;;;;;;;24.12;19.19;101544.67;103506;1250;107679;-62
2023/05/08 09:16:56;;;;;;;6.60;2.20;;;;;;;23.46;20.24;101546.08;103661;1250;137529;-62
2023/05/08 09:19:25;;;;;;;4.70;2.40;;;;;;;23.27;20.68;101545.02;103639;1250;108499;-62
2023/05/08 09:21:58;;;;;;;7.10;2.60;;;;;;;22.85;20.59;101545.52;103914;1250;137715;-63
2023/05/08 09:24:26;;;;;;;7.80;2.10;;;;;;;22.75;21.12;101544.39;103774;1250;109820;-62
2023/05/08 09:26:56;;;;;;;3.40;2.00;;;;;;;23.11;21.32;101541.98;103555;1250;107138;-62
2023/05/08 09:29:23;;;;;;;7.10;2.20;;;;;;;22.58;20.90;101541.52;103467;1250;137453;-63
2023/05/08 09:31:52;;;;;;;4.40;2.20;;;;;;;22.06;21.39;101538.69;103699;1253;107047;-62
2023/05/08 09:34:27;;;;;;;3.60;2.00;;;;;;;21.90;22.07;101538.70;103640;1250;137439;-62
2023/05/08 09:36:55;;;;;;;5.00;2.20;;;;;;;21.54;22.06;101545.95;103839;1250;109611;-62
2023/05/08 09:39:25;;;;;;;8.20;2.30;;;;;;;21.39;22.30;101546.28;103527;1251;138632;-62
2023/05/08 09:42:03;;;;;;;7.10;5.40;;;;;;;21.96;22.95;101536.25;103766;1254;96421;-62
2023/05/08 09:44:45;;;;;;;3.80;2.60;;;;;;;22.68;22.82;101534.00;103616;1250;108009;-62
2023/05/08 09:47:14;;;;;;;2.60;2.00;;;;;;;23.32;22.13;101526.75;103539;1250;137429;-62
2023/05/08 09:49:55;;;;;;;4.30;2.20;;;;;;;23.76;21.50;101526.14;103748;1250;109863;-62
2023/05/08 09:52:23;;;;;;;2.60;2.00;;;;;;;24.06;20.87;101524.61;103837;1250;137800;-62
2023/05/08 09:54:56;;;;;;;3.40;1.90;;;;;;;24.11;20.61;101524.46;103554;1250;96791;-62
2023/05/08 09:57:23;;;;;;;4.00;2.10;;;;;;;23.70;20.61;101521.58;103444;1253;137561;-63
2023/05/08 09:59:50;;;;;;;4.30;1.80;;;;;;;23.97;21.38;101519.73;103680;1250;96466;-62
2023/05/08 10:02:19;;;;;;;4.40;1.90;;;;;;;24.54;21.47;101516.54;103524;1254;111190;-63
2023/05/08 10:04:46;;;;;;;4.80;2.10;;;;;;;25.12;21.44;101516.09;103478;1251;137562;-63
2023/05/08 10:07:13;;;;;;;2.00;1.60;;;;;;;25.76;21.20;101510.61;103600;1251;96428;-63
2023/05/08 10:09:57;;;;;;;4.60;1.80;;;;;;;26.20;19.26;101505.44;103414;1251;137434;-63
2023/05/08 10:12:24;;;;;;;4.20;2.20;;;;;;;26.04;18.31;101497.09;103611;1251;96435;-62
2023/05/08 10:14:52;;;;;;;3.70;2.30;;;;;;;25.37;18.78;101503.05;103551;1251;110483;-63
2023/05/08 10:17:24;;;;;;;3.80;1.90;;;;;;;24.63;18.58;101504.30;103474;1251;137580;-62
2023/05/08 10:19:59;;;;;;;5.30;2.00;;;;;;;23.78;18.98;101504.85;103529;1251;96437;-63
2023/05/08 10:22:27;;;;;;;4.50;2.10;;;;;;;23.01;19.93;101501.23;103496;1251;137356;-62
2023/05/08 10:24:57;;;;;;;3.80;2.00;;;;;;;23.08;20.54;101495.63;103616;1254;96412;-62
2023/05/08 10:27:33;;;;;;;4.80;1.60;;;;;;;23.37;20.90;101494.98;103836;1250;137464;-62
2023/05/08 10:30:04;;;;;;;4.00;2.00;;;;;;;23.94;21.20;101491.00;103779;1250;107677;-62
2023/05/08 10:32:39;;;;;;;6.30;1.80;;;;;;;24.56;20.51;101491.27;103894;1250;96417;-62
2023/05/08 10:35:11;;;;;;;7.10;2.20;;;;;;;24.45;19.23;101493.33;103965;1251;137407;-62
2023/05/08 10:37:40;;;;;;;5.50;2.00;;;;;;;23.84;20.27;101492.90;103663;1250;96463;-62
2023/05/08 10:40:10;;;;;;;4.00;2.10;;;;;;;24.06;20.78;101489.48;103636;1250;137357;-62
2023/05/08 10:42:38;;;;;;;3.20;1.90;;;;;;;24.13;20.09;101490.77;104045;1250;107107;-62
2023/05/08 10:45:07;;;;;;;5.50;2.00;;;;;;;23.83;20.08;101496.55;103522;1250;96473;-63
2023/05/08 10:47:48;;;;;;;7.10;2.30;;;;;;;23.59;19.93;101492.63;103561;1255;242664;-62
2023/05/08 10:50:28;;;;;;;4.00;2.20;;;;;;;23.21;20.40;101493.20;103614;1251;96534;-63
2023/05/08 10:53:05;;;;;;;7.10;2.30;;;;;;;23.05;20.59;101491.06;103417;1254;137515;-62
2023/05/08 10:55:35;;;;;;;4.20;2.80;;;;;;;22.96;20.99;101487.23;103614;1250;107058;-63
2023/05/08 10:58:09;;;;;;;4.90;2.50;;;;;;;22.76;20.91;101491.66;103498;1250;137438;-62
2023/05/08 11:01:14;;;;;;;3.40;2.10;;;;;;;22.55;20.91;101492.11;104075;1253;108649;-62
2023/05/08 11:03:45;;;;;;;5.60;2.10;;;;;;;22.33;21.03;101483.92;103535;1254;137932;-62
2023/05/08 11:06:12;;;;;;;5.00;2.10;;;;;;;22.26;21.14;101477.92;103592;1251;110198;-62
2023/05/08 11:08:48;;;;;;;2.50;2.10;;;;;;;22.28;21.22;101474.98;103550;1254;108506;-62
2023/05/08 11:11:25;;;;;;;4.90;3.10;;;;;;;22.23;21.11;101477.38;103556;1250;138127;-61
2023/05/08 11:13:57;;;;;;;6.00;2.60;;;;;;;22.02;20.80;101477.10;104376;1250;106922;-62
2023/05/08 11:16:55;;;;;;;4.30;2.30;;;;;;;21.67;21.09;101476.19;103511;1250;137539;-62
2023/05/08 11:19:25;;;;;;;2.80;2.10;;;;;;;21.39;21.33;101471.97;103515;1250;110868;-63
2023/05/08 11:22:27;;;;;;;5.70;2.30;;;;;;;21.20;21.63;101472.89;103486;1254;138100;-63
2023/05/08 11:25:11;;;;;;;3.70;2.10;;;;;;;21.17;22.58;101466.50;103308;1257;96473;-62
2023/05/08 11:28:00;;;;;;;5.10;2.20;;;;;;;21.32;22.53;101463.67;103235;1259;137629;-63
2023/05/08 11:30:36;;;;;;;4.00;2.20;;;;;;;21.41;22.31;101462.84;103223;1255;97050;-62